createdAt,value
2023-01-01T00:01:52.875Z,81.79
2023-01-01T00:04:22.081Z,81.47
2023-01-01T00:06:49.795Z,80.96
2023-01-01T00:09:34.992Z,81.00
2023-01-01T00:12:03.127Z,81.31
2023-01-01T00:14:30.896Z,79.96
2023-01-01T00:16:58.664Z,80.27
2023-01-01T00:19:27.777Z,80.05
2023-01-01T00:21:55.516Z,80.74
2023-01-01T00:24:23.119Z,82.76
2023-01-01T00:26:50.774Z,82.39
2023-01-01T00:29:18.956Z,82.33
2023-01-01T00:31:46.890Z,82.10
2023-01-01T00:34:14.925Z,82.93
2023-01-01T00:36:44.270Z,82.89
2023-01-01T00:39:12.002Z,83.55
2023-01-01T00:41:39.704Z,83.45
2023-01-01T00:44:07.595Z,83.48
2023-01-01T00:46:35.482Z,83.72
2023-01-01T00:49:03.187Z,83.76
2023-01-01T00:51:36.738Z,83.81
2023-01-01T00:54:06.358Z,83.84
2023-01-01T00:56:35.191Z,83.63
2023-01-01T00:59:02.725Z,85.38
2023-01-01T01:01:30.679Z,84.73
2023-01-01T01:03:58.475Z,84.82
2023-01-01T01:06:26.265Z,85.29
2023-01-01T01:08:53.997Z,85.67
2023-01-01T01:11:25.159Z,86.10
2023-01-01T01:13:54.122Z,86.92
2023-01-01T01:16:24.509Z,87.01
2023-01-01T01:18:53.186Z,87.84
2023-01-01T01:21:21.396Z,88.19
2023-01-01T01:23:50.687Z,88.56
2023-01-01T01:26:23.986Z,88.26
2023-01-01T01:28:52.418Z,87.87
2023-01-01T01:31:21.442Z,87.79
2023-01-01T01:33:49.062Z,88.31
2023-01-01T01:36:18.682Z,88.36
2023-01-01T01:38:46.346Z,88.83
2023-01-01T01:41:26.923Z,89.67
2023-01-01T01:43:57.598Z,90.02
2023-01-01T01:46:30.392Z,90.32
2023-01-01T01:49:02.216Z,89.24
2023-01-01T01:51:33.931Z,89.08
2023-01-01T01:54:05.252Z,89.18
2023-01-01T01:56:37.443Z,88.98
2023-01-01T01:59:06.863Z,85.42
2023-01-01T02:01:34.579Z,83.45
2023-01-01T02:04:02.971Z,85.87
2023-01-01T02:06:32.298Z,87.15
2023-01-01T02:09:02.246Z,87.12
2023-01-01T02:11:30.038Z,87.20
2023-01-01T02:13:58.168Z,87.67
2023-01-01T02:16:30.246Z,87.87
2023-01-01T02:19:01.571Z,87.80
2023-01-01T02:21:32.772Z,87.67
2023-01-01T02:24:13.717Z,87.16
2023-01-01T02:26:57.704Z,86.10
2023-01-01T02:29:45.533Z,87.06
2023-01-01T02:32:15.592Z,87.19
2023-01-01T02:34:47.650Z,86.54
2023-01-01T02:37:16.596Z,86.88
2023-01-01T02:39:47.730Z,86.55
2023-01-01T02:42:16.015Z,86.49
2023-01-01T02:44:46.638Z,86.13
2023-01-01T02:47:18.383Z,85.68
2023-01-01T02:49:51.486Z,85.46
2023-01-01T02:52:31.674Z,85.40
2023-01-01T02:55:02.608Z,85.41
2023-01-01T02:57:34.793Z,85.20
2023-01-01T03:00:28.084Z,85.12
2023-01-01T03:03:10.354Z,84.82
2023-01-01T03:06:02.495Z,84.60
2023-01-01T03:08:39.593Z,84.43
2023-01-01T03:11:10.305Z,84.63
2023-01-01T03:13:41.492Z,84.50
2023-01-01T03:16:14.814Z,84.11
2023-01-01T03:18:46.126Z,83.89
2023-01-01T03:23:49.949Z,82.84
2023-01-01T03:26:19.125Z,83.58
2023-01-01T03:28:49.445Z,83.38
2023-01-01T03:31:20.575Z,82.97
2023-01-01T03:33:50.752Z,82.65
2023-01-01T03:36:22.644Z,82.52
2023-01-01T03:38:52.188Z,82.34
2023-01-01T03:41:33.803Z,81.88
2023-01-01T03:44:05.653Z,81.41
2023-01-01T03:46:36.571Z,81.73
2023-01-01T03:49:06.725Z,81.10
2023-01-01T03:51:46.237Z,81.39
2023-01-01T03:54:19.825Z,80.73
2023-01-01T03:56:51.144Z,80.24
2023-01-01T03:59:22.821Z,79.76
2023-01-01T04:01:53.804Z,80.15
2023-01-01T04:04:21.699Z,80.51
2023-01-01T04:06:49.384Z,80.41
2023-01-01T04:09:19.259Z,80.05
2023-01-01T04:12:04.343Z,79.83
2023-01-01T04:14:33.745Z,80.65
2023-01-01T04:17:04.719Z,80.15
2023-01-01T04:19:32.814Z,79.51
2023-01-01T04:22:00.921Z,80.11
2023-01-01T04:24:28.619Z,78.94
2023-01-01T04:26:56.895Z,79.97
2023-01-01T04:29:24.779Z,79.82
2023-01-01T04:31:52.595Z,79.57
2023-01-01T04:34:21.635Z,79.56
2023-01-01T04:36:49.390Z,79.50
2023-01-01T04:39:17.061Z,79.07
2023-01-01T04:41:44.715Z,79.71
2023-01-01T04:44:12.440Z,79.74
2023-01-01T04:46:40.214Z,79.76
2023-01-01T04:49:07.919Z,78.84
2023-01-01T04:51:37.248Z,78.81
2023-01-01T04:54:05.323Z,79.02
2023-01-01T04:56:33.043Z,79.28
2023-01-01T04:59:00.920Z,79.59
2023-01-01T05:01:30.265Z,79.24
2023-01-01T05:04:00.822Z,79.11
2023-01-01T05:06:29.631Z,79.03
2023-01-01T05:08:59.560Z,78.99
2023-01-01T05:11:29.219Z,78.69
2023-01-01T05:13:58.477Z,79.25
2023-01-01T05:16:27.364Z,79.52
2023-01-01T05:18:55.298Z,79.14
2023-01-01T05:21:24.947Z,79.39
2023-01-01T05:23:55.854Z,79.68
2023-01-01T05:26:27.185Z,79.50
2023-01-01T05:28:55.005Z,79.64
2023-01-01T05:31:24.997Z,79.68
2023-01-01T05:33:53.411Z,79.91
2023-01-01T05:36:23.491Z,80.57
2023-01-01T05:38:51.713Z,80.97
2023-01-01T05:41:20.677Z,81.39
2023-01-01T05:43:50.394Z,81.54
2023-01-01T05:46:20.144Z,82.14
2023-01-01T05:48:48.107Z,81.81
2023-01-01T05:51:17.863Z,82.38
2023-01-01T05:53:45.589Z,82.29
2023-01-01T05:56:13.823Z,82.72
2023-01-01T05:58:42.348Z,82.46
2023-01-01T06:01:14.234Z,82.39
2023-01-01T06:03:43.564Z,82.68
2023-01-01T06:06:13.386Z,82.46
2023-01-01T06:08:41.512Z,82.70
2023-01-01T06:11:12.329Z,82.62
2023-01-01T06:13:40.177Z,82.51
2023-01-01T06:16:08.894Z,82.76
2023-01-01T06:18:38.172Z,82.75
2023-01-01T06:21:07.239Z,82.56
2023-01-01T06:23:35.159Z,82.71
2023-01-01T06:26:07.893Z,82.11
2023-01-01T06:28:35.570Z,82.44
2023-01-01T06:31:03.855Z,82.13
2023-01-01T06:33:31.884Z,81.30
2023-01-01T06:36:03.570Z,80.48
2023-01-01T06:38:32.845Z,80.53
2023-01-01T06:41:02.183Z,80.23
2023-01-01T06:43:31.268Z,80.16
2023-01-01T06:46:03.363Z,79.92
2023-01-01T06:48:32.171Z,80.05
2023-01-01T06:51:06.772Z,80.04
2023-01-01T06:53:34.492Z,79.93
2023-01-01T06:56:02.185Z,80.14
2023-01-01T06:58:29.982Z,79.39
2023-01-01T07:01:08.280Z,78.86
2023-01-01T07:03:37.125Z,78.39
2023-01-01T07:06:07.160Z,77.57
2023-01-01T07:08:34.869Z,76.90
2023-01-01T07:11:02.885Z,77.23
2023-01-01T07:13:31.603Z,77.05
2023-01-01T07:15:59.799Z,77.36
2023-01-01T07:18:27.554Z,77.27
2023-01-01T07:20:57.216Z,77.07
2023-01-01T07:23:27.004Z,77.76
2023-01-01T07:25:55.335Z,77.89
2023-01-01T07:28:24.299Z,78.19
2023-01-01T07:30:53.717Z,78.05
2023-01-01T07:33:23.594Z,77.39
2023-01-01T07:35:51.383Z,77.88
2023-01-01T07:38:19.150Z,77.71
2023-01-01T07:40:48.210Z,76.88
2023-01-01T07:43:15.986Z,75.83
2023-01-01T07:45:43.730Z,74.24
2023-01-01T07:48:15.491Z,74.14
2023-01-01T07:50:44.024Z,74.90
2023-01-01T07:53:11.798Z,74.87
2023-01-01T07:55:39.684Z,75.10
2023-01-01T07:58:08.827Z,75.54
2023-01-01T08:00:36.560Z,75.62
2023-01-01T08:03:04.463Z,76.58
2023-01-01T08:05:34.003Z,76.49
2023-01-01T08:08:01.677Z,77.30
2023-01-01T08:10:29.523Z,77.74
2023-01-01T08:13:00.779Z,77.94
2023-01-01T08:15:30.168Z,77.92
2023-01-01T08:17:58.738Z,78.24
2023-01-01T08:20:26.738Z,77.81
2023-01-01T08:22:54.808Z,77.92
2023-01-01T08:25:23.219Z,77.73
2023-01-01T08:27:50.984Z,77.59
2023-01-01T08:30:18.913Z,77.90
2023-01-01T08:32:48.248Z,77.71
2023-01-01T08:35:16.076Z,78.04
2023-01-01T08:37:43.789Z,78.04
2023-01-01T08:40:13.392Z,77.98
2023-01-01T08:42:41.534Z,77.99
2023-01-01T08:45:10.219Z,78.01
2023-01-01T08:47:37.975Z,78.55
2023-01-01T08:50:08.257Z,78.48
2023-01-01T08:52:36.003Z,78.42
2023-01-01T08:55:03.669Z,78.64
2023-01-01T08:57:32.389Z,78.64
2023-01-01T09:00:00.159Z,79.02
2023-01-01T09:02:28.198Z,78.77
2023-01-01T09:04:55.947Z,79.33
2023-01-01T09:07:25.026Z,79.25
2023-01-01T09:09:52.767Z,79.64
2023-01-01T09:12:20.516Z,79.96
2023-01-01T09:14:48.637Z,79.87
2023-01-01T09:17:16.519Z,80.13
2023-01-01T09:19:44.297Z,80.19
2023-01-01T09:22:13.010Z,80.22
2023-01-01T09:24:42.119Z,80.33
2023-01-01T09:27:09.789Z,80.72
2023-01-01T09:29:37.553Z,81.09
2023-01-01T09:32:05.752Z,80.97
2023-01-01T09:34:33.548Z,80.99
2023-01-01T09:37:01.368Z,81.38
2023-01-01T09:39:30.231Z,81.55
2023-01-01T09:42:21.835Z,81.15
2023-01-01T09:45:02.105Z,81.53
2023-01-01T09:47:31.900Z,81.68
2023-01-01T09:50:03.177Z,81.58
2023-01-01T09:52:47.242Z,81.91
2023-01-01T09:55:21.567Z,82.23
2023-01-01T09:57:50.875Z,82.33
2023-01-01T10:00:20.123Z,82.71
2023-01-01T10:03:08.600Z,82.70
2023-01-01T10:05:47.022Z,82.96
2023-01-01T10:08:23.584Z,83.16
2023-01-01T10:10:57.121Z,83.15
2023-01-01T10:13:30.003Z,83.09
2023-01-01T10:16:00.054Z,83.34
2023-01-01T10:18:33.403Z,83.43
2023-01-01T10:21:05.339Z,83.63
2023-01-01T10:23:36.309Z,83.59
2023-01-01T10:26:09.876Z,83.59
2023-01-01T10:28:46.320Z,83.62
2023-01-01T10:31:18.509Z,83.99
2023-01-01T10:33:47.733Z,84.06
2023-01-01T10:36:17.663Z,84.21
2023-01-01T10:38:45.476Z,84.16
2023-01-01T10:41:19.620Z,84.16
2023-01-01T10:43:50.134Z,84.41
2023-01-01T10:46:23.723Z,84.41
2023-01-01T10:49:10.454Z,83.89
2023-01-01T10:51:39.723Z,84.38
2023-01-01T10:54:10.437Z,84.34
2023-01-01T10:56:43.402Z,84.61
2023-01-01T10:59:37.225Z,83.69
2023-01-01T11:02:20.423Z,84.03
2023-01-01T11:04:48.570Z,84.34
2023-01-01T11:07:30.124Z,84.37
2023-01-01T11:10:04.174Z,84.77
2023-01-01T11:15:27.488Z,85.09
2023-01-01T11:18:04.658Z,85.46
2023-01-01T11:20:32.731Z,85.68
2023-01-01T11:23:00.468Z,85.92
2023-01-01T11:25:30.307Z,86.43
2023-01-01T11:28:20.294Z,86.43
2023-01-01T11:31:00.511Z,86.62
2023-01-01T11:33:28.817Z,87.53
2023-01-01T11:35:57.315Z,87.59
2023-01-01T11:38:29.850Z,88.23
2023-01-01T11:41:03.866Z,88.54
2023-01-01T11:43:39.112Z,88.44
2023-01-01T11:46:11.103Z,88.67
2023-01-01T11:48:42.815Z,88.72
2023-01-01T11:51:12.754Z,88.80
2023-01-01T11:53:42.174Z,88.95
2023-01-01T11:56:12.858Z,88.94
2023-01-01T11:58:46.585Z,88.57
2023-01-01T12:01:21.237Z,88.82
2023-01-01T12:03:52.899Z,88.77
2023-01-01T12:06:24.497Z,88.79
2023-01-01T12:08:56.329Z,88.69
2023-01-01T12:11:28.499Z,88.82
2023-01-01T12:14:00.071Z,88.85
2023-01-01T12:16:47.608Z,88.25
2023-01-01T12:19:21.227Z,88.84
2023-01-01T12:21:52.760Z,88.86
2023-01-01T12:24:21.213Z,88.92
2023-01-01T12:27:05.258Z,88.95
2023-01-01T12:29:44.662Z,89.15
2023-01-01T12:32:19.071Z,88.95
2023-01-01T12:34:51.914Z,89.58
2023-01-01T12:37:24.794Z,89.52
2023-01-01T12:40:28.597Z,89.13
2023-01-01T12:43:02.021Z,89.47
2023-01-01T12:45:46.880Z,89.39
2023-01-01T12:48:32.161Z,89.68
2023-01-01T12:51:05.632Z,89.69
2023-01-01T12:53:38.055Z,89.96
2023-01-01T12:56:20.845Z,90.03
2023-01-01T12:58:53.425Z,90.28
2023-01-01T13:01:28.295Z,90.46
2023-01-01T13:04:02.384Z,90.45
2023-01-01T13:06:32.824Z,90.48
2023-01-01T13:09:06.461Z,90.18
2023-01-01T13:11:38.588Z,90.56
2023-01-01T13:14:10.915Z,90.66
2023-01-01T13:16:41.405Z,90.55
2023-01-01T13:19:25.511Z,90.12
2023-01-01T13:21:53.250Z,90.59
2023-01-01T13:24:22.856Z,90.71
2023-01-01T13:26:54.293Z,90.84
2023-01-01T13:29:48.302Z,90.25
2023-01-01T13:32:16.221Z,90.71
2023-01-01T13:35:01.677Z,90.53
2023-01-01T13:37:53.091Z,90.54
2023-01-01T13:40:51.364Z,90.71
2023-01-01T13:43:30.586Z,90.64
2023-01-01T13:46:15.253Z,90.94
2023-01-01T13:49:06.931Z,90.54
2023-01-01T13:52:12.717Z,90.61
2023-01-01T13:55:30.642Z,90.55
2023-01-01T13:58:18.931Z,90.47
2023-01-01T14:00:59.290Z,90.71
2023-01-01T14:03:27.796Z,90.81
2023-01-01T14:05:58.067Z,90.95
2023-01-01T14:08:31.876Z,90.67
2023-01-01T14:11:01.949Z,90.49
2023-01-01T14:13:32.349Z,90.66
2023-01-01T14:16:02.310Z,90.29
2023-01-01T14:18:34.151Z,90.38
2023-01-01T14:21:02.272Z,90.30
2023-01-01T14:23:33.661Z,90.33
2023-01-01T14:26:02.640Z,90.08
2023-01-01T14:28:32.119Z,90.29
2023-01-01T14:31:08.636Z,90.31
2023-01-01T14:33:38.816Z,90.21
2023-01-01T14:36:14.822Z,89.82
2023-01-01T14:38:47.150Z,89.67
2023-01-01T14:41:18.949Z,89.68
2023-01-01T14:43:48.097Z,89.93
2023-01-01T14:46:17.527Z,89.69
2023-01-01T14:48:46.055Z,89.80
2023-01-01T14:51:15.222Z,89.75
2023-01-01T14:53:45.409Z,89.54
2023-01-01T14:56:22.719Z,89.40
2023-01-01T14:58:50.594Z,89.58
2023-01-01T15:01:21.654Z,89.52
2023-01-01T15:04:00.589Z,89.30
2023-01-01T15:06:29.288Z,89.82
2023-01-01T15:08:58.421Z,89.83
2023-01-01T15:11:29.048Z,89.73
2023-01-01T15:14:00.133Z,90.01
2023-01-01T15:16:32.081Z,89.70
2023-01-01T15:19:17.203Z,89.76
2023-01-01T15:21:44.920Z,90.04
2023-01-01T15:24:15.651Z,90.09
2023-01-01T15:26:45.322Z,90.39
2023-01-01T15:29:17.943Z,90.36
2023-01-01T15:33:53.440Z,89.02
2023-01-01T15:36:25.202Z,87.98
2023-01-01T15:38:53.747Z,89.36
2023-01-01T15:41:25.139Z,89.77
2023-01-01T15:43:52.995Z,90.16
2023-01-01T15:46:32.177Z,90.15
2023-01-01T15:49:01.712Z,90.33
2023-01-01T15:51:30.149Z,90.55
2023-01-01T15:53:59.446Z,90.59
2023-01-01T15:56:29.000Z,90.64
2023-01-01T15:59:05.045Z,90.79
2023-01-01T16:01:37.130Z,90.83
2023-01-01T16:04:10.085Z,90.44
2023-01-01T16:06:44.355Z,90.84
2023-01-01T16:09:13.152Z,90.87
2023-01-01T16:11:41.029Z,90.71
2023-01-01T16:14:08.764Z,91.00
2023-01-01T16:16:38.201Z,90.43
2023-01-01T16:19:07.589Z,90.56
2023-01-01T16:21:35.247Z,90.68
2023-01-01T16:24:02.994Z,90.86
2023-01-01T16:26:30.999Z,90.73
2023-01-01T16:28:58.693Z,90.80
2023-01-01T16:31:28.713Z,90.48
2023-01-01T16:33:57.967Z,90.75
2023-01-01T16:36:29.172Z,90.86
2023-01-01T16:38:57.347Z,90.68
2023-01-01T16:41:26.050Z,90.80
2023-01-01T16:43:53.871Z,90.36
2023-01-01T16:46:21.655Z,90.50
2023-01-01T16:48:49.393Z,90.43
2023-01-01T16:51:19.651Z,90.59
2023-01-01T16:53:48.939Z,90.54
2023-01-01T16:56:17.268Z,90.55
2023-01-01T16:58:50.084Z,90.49
2023-01-01T17:01:19.267Z,90.29
2023-01-01T17:03:47.242Z,90.54
2023-01-01T17:06:15.234Z,90.31
2023-01-01T17:08:43.065Z,90.31
2023-01-01T17:11:15.164Z,90.55
2023-01-01T17:13:43.374Z,90.12
2023-01-01T17:16:12.200Z,90.23
2023-01-01T17:19:13.450Z,90.13
2023-01-01T17:21:28.069Z,90.22
2023-01-01T17:23:55.876Z,90.09
2023-01-01T17:26:25.698Z,90.04
2023-01-01T17:29:00.343Z,90.26
2023-01-01T17:31:29.131Z,89.97
2023-01-01T17:33:57.339Z,90.02
2023-01-01T17:36:27.086Z,89.76
2023-01-01T17:38:55.001Z,90.11
2023-01-01T17:41:24.597Z,89.96
2023-01-01T17:43:52.873Z,89.67
2023-01-01T17:46:21.953Z,89.81
2023-01-01T17:48:50.161Z,89.99
2023-01-01T17:51:18.843Z,89.87
2023-01-01T17:53:46.979Z,89.73
2023-01-01T17:56:16.129Z,89.80
2023-01-01T17:58:46.947Z,90.04
2023-01-01T18:01:27.309Z,89.77
2023-01-01T18:03:56.503Z,90.36
2023-01-01T18:06:24.390Z,90.52
2023-01-01T18:08:55.600Z,90.91
2023-01-01T18:11:23.643Z,91.46
2023-01-01T18:13:52.778Z,91.60
2023-01-01T18:16:20.457Z,92.14
2023-01-01T18:18:48.147Z,92.43
2023-01-01T18:21:19.367Z,92.58
2023-01-01T18:23:47.249Z,92.91
2023-01-01T18:26:14.990Z,92.98
2023-01-01T18:28:42.866Z,93.36
2023-01-01T18:31:14.043Z,93.33
2023-01-01T18:33:43.734Z,93.34
2023-01-01T18:36:13.140Z,93.62
2023-01-01T18:38:41.232Z,93.55
2023-01-01T18:41:24.145Z,93.75
2023-01-01T18:43:51.931Z,93.92
2023-01-01T18:46:23.416Z,93.86
2023-01-01T18:48:55.499Z,93.97
2023-01-01T18:51:27.353Z,94.30
2023-01-01T18:53:59.165Z,94.21
2023-01-01T18:56:27.303Z,94.49
2023-01-01T18:58:56.102Z,94.50
2023-01-01T19:01:25.785Z,94.63
2023-01-01T19:04:04.455Z,94.60
2023-01-01T19:06:33.894Z,94.76
2023-01-01T19:09:15.838Z,94.66
2023-01-01T19:11:43.609Z,94.82
2023-01-01T19:14:16.637Z,95.03
2023-01-01T19:16:46.771Z,95.27
2023-01-01T19:19:18.816Z,95.21
2023-01-01T19:21:51.455Z,95.46
2023-01-01T19:24:21.160Z,95.46
2023-01-01T19:26:49.394Z,95.80
2023-01-01T19:29:19.105Z,95.75
2023-01-01T19:31:49.485Z,95.67
2023-01-01T19:34:17.292Z,96.12
2023-01-01T19:36:46.196Z,96.00
2023-01-01T19:39:14.173Z,96.35
2023-01-01T19:41:41.938Z,96.55
2023-01-01T19:44:10.455Z,96.44
2023-01-01T19:46:38.490Z,96.51
2023-01-01T19:49:07.671Z,96.94
2023-01-01T19:51:35.424Z,96.67
2023-01-01T19:54:03.147Z,96.95
2023-01-01T19:56:30.862Z,97.17
2023-01-01T19:58:58.520Z,97.31
2023-01-01T20:01:26.376Z,97.51
2023-01-01T20:03:56.470Z,97.90
2023-01-01T20:06:26.400Z,97.72
2023-01-01T20:08:54.820Z,97.94
2023-01-01T20:11:22.944Z,98.14
2023-01-01T20:13:50.663Z,98.20
2023-01-01T20:16:18.428Z,98.20
2023-01-01T20:18:48.038Z,98.39
2023-01-01T20:21:33.455Z,98.26
2023-01-01T20:24:02.589Z,98.29
2023-01-01T20:26:30.302Z,98.56
2023-01-01T20:29:15.477Z,98.58
2023-01-01T20:31:43.876Z,98.54
2023-01-01T20:34:11.757Z,98.92
2023-01-01T20:36:57.275Z,99.10
2023-01-01T20:39:26.875Z,98.96
2023-01-01T20:41:54.676Z,99.14
2023-01-01T20:44:22.490Z,99.40
2023-01-01T20:46:50.172Z,99.35
2023-01-01T20:49:18.665Z,99.42
2023-01-01T20:51:47.588Z,99.89
2023-01-01T20:54:15.314Z,99.67
2023-01-01T20:56:44.603Z,99.83
2023-01-01T20:59:34.148Z,100.00
2023-01-01T21:02:00.783Z,100.00
2023-01-01T21:04:28.671Z,99.94
2023-01-01T21:06:56.417Z,99.92
2023-01-01T21:09:24.127Z,99.94
2023-01-01T21:11:53.173Z,100.00
2023-01-01T21:14:22.783Z,100.00
2023-01-01T21:16:51.642Z,100.00
2023-01-01T21:19:26.111Z,100.00
2023-01-01T21:21:56.346Z,100.00
2023-01-01T21:24:27.218Z,100.00
2023-01-01T21:26:57.419Z,100.00
2023-01-01T21:29:26.665Z,100.00
2023-01-01T21:31:58.879Z,100.00
2023-01-01T21:34:33.973Z,100.00
2023-01-01T21:37:03.205Z,100.00
2023-01-01T21:39:32.035Z,100.00
2023-01-01T21:42:15.939Z,100.00
2023-01-01T21:44:43.605Z,100.00
2023-01-01T21:47:18.830Z,100.00
2023-01-01T21:49:47.212Z,100.00
2023-01-01T21:52:17.090Z,100.00
2023-01-01T21:54:48.172Z,100.00
2023-01-01T21:57:19.897Z,100.00
2023-01-01T21:59:48.013Z,100.00
2023-01-01T22:02:31.923Z,100.00
2023-01-01T22:05:01.803Z,100.00
2023-01-01T22:10:22.470Z,100.00
2023-01-01T22:12:56.896Z,100.00
2023-01-01T22:15:42.778Z,100.00
2023-01-01T22:18:25.720Z,100.00
2023-01-01T22:20:53.543Z,100.00
2023-01-01T22:23:30.789Z,100.00
2023-01-01T22:25:58.554Z,100.00
2023-01-01T22:28:29.170Z,100.00
2023-01-01T22:30:59.577Z,100.00
2023-01-01T22:33:29.375Z,100.00
2023-01-01T22:35:57.931Z,100.00
2023-01-01T22:38:31.150Z,100.00
2023-01-01T22:40:59.022Z,100.00
2023-01-01T22:43:33.085Z,100.00
2023-01-01T22:46:02.215Z,100.00
2023-01-01T22:48:34.496Z,100.00
2023-01-01T22:51:03.800Z,100.00
2023-01-01T22:53:31.532Z,100.00
2023-01-01T22:55:59.304Z,100.00
2023-01-01T22:58:28.340Z,100.00
2023-01-01T23:00:56.212Z,100.00
2023-01-01T23:03:24.052Z,100.00
2023-01-01T23:05:53.071Z,100.00
2023-01-01T23:08:20.983Z,100.00
2023-01-01T23:10:48.753Z,100.00
2023-01-01T23:13:34.281Z,100.00
2023-01-01T23:16:03.507Z,100.00
2023-01-01T23:18:33.239Z,100.00
2023-01-01T23:21:01.647Z,100.00
2023-01-01T23:23:30.271Z,100.00
2023-01-01T23:25:58.658Z,100.00
2023-01-01T23:28:26.710Z,100.00
2023-01-01T23:30:54.634Z,100.00
2023-01-01T23:33:23.979Z,100.00
2023-01-01T23:35:52.085Z,100.00
2023-01-01T23:38:19.956Z,100.00
2023-01-01T23:40:47.634Z,100.00
2023-01-01T23:43:15.365Z,100.00
2023-01-01T23:45:43.221Z,100.00
2023-01-01T23:48:11.046Z,100.00
2023-01-01T23:50:40.616Z,100.00
2023-01-01T23:53:08.257Z,100.00
2023-01-01T23:55:35.948Z,100.00
2023-01-01T23:58:03.766Z,100.00
